createdAt,value
2023-12-02T00:02:08.016Z,-1.10
2023-12-02T00:04:34.781Z,-1.10
2023-12-02T00:07:01.488Z,-1.10
2023-12-02T00:09:28.278Z,-1.00
2023-12-02T00:11:55.010Z,-1.10
2023-12-02T00:14:21.684Z,-1.10
2023-12-02T00:16:48.616Z,-1.10
2023-12-02T00:19:15.388Z,-1.10
2023-12-02T00:21:42.052Z,-1.10
2023-12-02T00:24:08.925Z,-1.10
2023-12-02T00:26:35.638Z,-1.10
2023-12-02T00:29:02.269Z,-1.10
2023-12-02T00:31:28.958Z,-1.10
2023-12-02T00:33:57.833Z,-1.10
2023-12-02T00:36:25.075Z,-1.10
2023-12-02T00:38:52.536Z,-1.10
2023-12-02T00:41:19.993Z,-1.10
2023-12-02T00:43:46.826Z,-1.10
2023-12-02T00:46:13.519Z,-1.10
2023-12-02T00:48:40.344Z,-1.10
2023-12-02T00:51:07.746Z,-1.10
2023-12-02T00:53:34.432Z,-1.10
2023-12-02T00:56:01.143Z,-1.20
2023-12-02T00:58:35.831Z,-1.20
2023-12-02T01:01:08.334Z,-1.20
2023-12-02T01:03:35.103Z,-1.10
2023-12-02T01:06:01.834Z,-1.10
2023-12-02T01:08:28.598Z,-1.10
2023-12-02T01:10:55.260Z,-1.10
2023-12-02T01:13:22.012Z,-1.10
2023-12-02T01:15:48.645Z,-1.10
2023-12-02T01:18:15.482Z,-1.00
2023-12-02T01:20:42.202Z,-1.10
2023-12-02T01:23:08.832Z,-1.00
2023-12-02T01:25:35.482Z,-1.10
2023-12-02T01:28:02.495Z,-1.10
2023-12-02T01:30:29.450Z,-1.10
2023-12-02T01:32:56.459Z,-1.10
2023-12-02T01:35:23.214Z,-1.10
2023-12-02T01:37:49.954Z,-1.10
2023-12-02T01:40:16.784Z,-1.10
2023-12-02T01:42:43.444Z,-1.10
2023-12-02T01:45:10.550Z,-1.10
2023-12-02T01:47:37.371Z,-1.10
2023-12-02T01:50:04.803Z,-1.10
2023-12-02T01:52:31.733Z,-1.10
2023-12-02T01:54:58.449Z,-1.20
2023-12-02T01:57:25.175Z,-1.10
2023-12-02T01:59:55.714Z,-1.10
2023-12-02T02:02:22.682Z,-1.10
2023-12-02T02:04:49.761Z,-1.20
2023-12-02T02:07:16.781Z,-1.20
2023-12-02T02:09:50.112Z,-1.20
2023-12-02T02:12:17.868Z,-1.20
2023-12-02T02:14:44.898Z,-1.30
2023-12-02T02:17:11.676Z,-1.30
2023-12-02T02:19:38.472Z,-1.40
2023-12-02T02:22:05.283Z,-1.30
2023-12-02T02:24:32.078Z,-1.30
2023-12-02T02:26:59.054Z,-1.40
2023-12-02T02:29:25.772Z,-1.30
2023-12-02T02:31:52.428Z,-1.40
2023-12-02T02:34:19.350Z,-1.40
2023-12-02T02:36:46.418Z,-1.40
2023-12-02T02:39:13.241Z,-1.40
2023-12-02T02:41:40.388Z,-1.50
2023-12-02T02:44:07.231Z,-1.60
2023-12-02T02:46:33.995Z,-1.60
2023-12-02T02:49:00.823Z,-1.60
2023-12-02T02:51:27.874Z,-1.70
2023-12-02T02:53:54.862Z,-1.80
2023-12-02T02:56:21.906Z,-1.80
2023-12-02T02:58:48.709Z,-1.80
2023-12-02T03:01:15.546Z,-1.80
2023-12-02T03:03:42.212Z,-1.90
2023-12-02T03:06:09.483Z,-1.90
2023-12-02T03:08:36.797Z,-1.90
2023-12-02T03:11:03.923Z,-2.00
2023-12-02T03:13:30.620Z,-2.00
2023-12-02T03:15:57.366Z,-1.90
2023-12-02T03:18:24.540Z,-2.00
2023-12-02T03:20:51.318Z,-1.90
2023-12-02T03:23:18.116Z,-1.90
2023-12-02T03:25:44.963Z,-1.90
2023-12-02T03:28:13.062Z,-1.90
2023-12-02T03:30:39.890Z,-1.90
2023-12-02T03:33:07.273Z,-1.90
2023-12-02T03:35:34.126Z,-1.80
2023-12-02T03:38:00.944Z,-1.80
2023-12-02T03:40:27.806Z,-1.80
2023-12-02T03:42:55.026Z,-1.90
2023-12-02T03:45:22.402Z,-1.90
2023-12-02T03:47:49.253Z,-1.90
2023-12-02T03:50:18.084Z,-1.80
2023-12-02T03:52:45.979Z,-1.80
2023-12-02T03:55:12.811Z,-1.80
2023-12-02T03:57:39.741Z,-1.80
2023-12-02T04:00:12.606Z,-1.80
2023-12-02T04:02:39.626Z,-1.80
2023-12-02T04:05:11.383Z,-1.80
2023-12-02T04:07:38.455Z,-1.80
2023-12-02T04:10:05.902Z,-1.80
2023-12-02T04:12:33.157Z,-1.80
2023-12-02T04:15:02.324Z,-1.80
2023-12-02T04:17:29.661Z,-1.80
2023-12-02T04:19:56.575Z,-1.80
2023-12-02T04:22:23.329Z,-1.80
2023-12-02T04:24:49.971Z,-1.70
2023-12-02T04:27:17.184Z,-1.70
2023-12-02T04:29:44.025Z,-1.70
2023-12-02T04:32:10.765Z,-1.70
2023-12-02T04:34:37.781Z,-1.70
2023-12-02T04:37:04.724Z,-1.70
2023-12-02T04:39:31.556Z,-1.70
2023-12-02T04:41:58.602Z,-1.70
2023-12-02T04:44:25.323Z,-1.70
2023-12-02T04:46:52.080Z,-1.70
2023-12-02T04:49:18.954Z,-1.70
2023-12-02T04:51:45.783Z,-1.60
2023-12-02T04:54:12.627Z,-1.60
2023-12-02T04:56:39.362Z,-1.70
2023-12-02T04:59:06.184Z,-1.60
2023-12-02T05:01:33.710Z,-1.60
2023-12-02T05:04:00.686Z,-1.60
2023-12-02T05:06:27.928Z,-1.60
2023-12-02T05:08:54.716Z,-1.60
2023-12-02T05:11:22.495Z,-1.60
2023-12-02T05:13:49.831Z,-1.60
2023-12-02T05:16:16.753Z,-1.50
2023-12-02T05:18:44.113Z,-1.50
2023-12-02T05:21:10.958Z,-1.50
2023-12-02T05:23:37.716Z,-1.50
2023-12-02T05:26:04.880Z,-1.50
2023-12-02T05:28:31.705Z,-1.50
2023-12-02T05:30:58.417Z,-1.50
2023-12-02T05:33:25.278Z,-1.50
2023-12-02T05:35:52.193Z,-1.50
2023-12-02T05:38:18.867Z,-1.50
2023-12-02T05:40:46.176Z,-1.40
2023-12-02T05:43:13.003Z,-1.50
2023-12-02T05:45:39.750Z,-1.60
2023-12-02T05:48:06.773Z,-1.60
2023-12-02T05:50:33.727Z,-1.60
2023-12-02T05:53:00.495Z,-1.60
2023-12-02T05:55:27.975Z,-1.70
2023-12-02T05:57:54.681Z,-1.70
2023-12-02T06:00:21.450Z,-1.70
2023-12-02T06:02:48.153Z,-1.70
2023-12-02T06:05:15.217Z,-1.80
2023-12-02T06:07:41.994Z,-1.80
2023-12-02T06:10:09.368Z,-1.80
2023-12-02T06:12:36.424Z,-1.80
2023-12-02T06:15:03.454Z,-1.80
2023-12-02T06:17:30.851Z,-1.90
2023-12-02T06:19:57.643Z,-1.90
2023-12-02T06:22:24.356Z,-1.90
2023-12-02T06:24:51.393Z,-1.90
2023-12-02T06:27:18.176Z,-2.00
2023-12-02T06:29:44.972Z,-2.00
2023-12-02T06:32:11.650Z,-1.90
2023-12-02T06:34:38.332Z,-2.00
2023-12-02T06:37:04.993Z,-2.00
2023-12-02T06:39:31.929Z,-2.00
2023-12-02T06:41:58.740Z,-2.00
2023-12-02T06:44:27.084Z,-2.10
2023-12-02T06:46:53.824Z,-2.10
2023-12-02T06:49:20.560Z,-2.10
2023-12-02T06:51:47.388Z,-2.20
2023-12-02T06:54:14.238Z,-2.20
2023-12-02T06:56:42.199Z,-2.20
2023-12-02T06:59:08.878Z,-2.30
2023-12-02T07:01:35.542Z,-2.30
2023-12-02T07:04:03.051Z,-2.40
2023-12-02T07:06:30.291Z,-2.40
2023-12-02T07:08:57.214Z,-2.40
2023-12-02T07:11:24.133Z,-2.40
2023-12-02T07:13:51.650Z,-2.40
2023-12-02T07:16:18.332Z,-2.40
2023-12-02T07:18:45.043Z,-2.40
2023-12-02T07:21:11.774Z,-2.40
2023-12-02T07:23:38.555Z,-2.30
2023-12-02T07:26:05.801Z,-2.30
2023-12-02T07:28:32.542Z,-2.30
2023-12-02T07:30:59.377Z,-2.30
2023-12-02T07:33:26.138Z,-2.30
2023-12-02T07:35:52.864Z,-2.30
2023-12-02T07:38:19.562Z,-2.30
2023-12-02T07:40:47.294Z,-2.40
2023-12-02T07:43:14.352Z,-2.30
2023-12-02T07:45:43.003Z,-2.30
2023-12-02T07:48:11.640Z,-2.40
2023-12-02T07:50:39.422Z,-2.40
2023-12-02T07:53:06.383Z,-2.40
2023-12-02T07:55:33.202Z,-2.40
2023-12-02T07:58:00.031Z,-2.50
2023-12-02T08:00:27.264Z,-2.40
2023-12-02T08:02:54.143Z,-2.40
2023-12-02T08:07:52.340Z,-2.50
2023-12-02T08:10:19.263Z,-2.50
2023-12-02T08:12:45.915Z,-2.40
2023-12-02T08:15:12.712Z,-2.50
2023-12-02T08:17:39.579Z,-2.40
2023-12-02T08:20:07.241Z,-2.40
2023-12-02T08:22:34.302Z,-2.40
2023-12-02T08:25:01.134Z,-2.30
2023-12-02T08:27:27.893Z,-2.30
2023-12-02T08:29:54.602Z,-2.30
2023-12-02T08:32:21.329Z,-2.20
2023-12-02T08:34:48.139Z,-2.10
2023-12-02T08:37:14.863Z,-2.10
2023-12-02T08:39:41.535Z,-2.10
2023-12-02T08:42:08.260Z,-2.00
2023-12-02T08:44:34.995Z,-2.00
2023-12-02T08:47:02.521Z,-2.00
2023-12-02T08:49:29.749Z,-1.90
2023-12-02T08:51:57.272Z,-1.90
2023-12-02T08:54:24.059Z,-1.80
2023-12-02T08:56:51.055Z,-1.80
2023-12-02T08:59:17.942Z,-1.80
2023-12-02T09:01:44.882Z,-1.70
2023-12-02T09:04:11.764Z,-1.60
2023-12-02T09:06:41.509Z,-1.60
2023-12-02T09:09:08.889Z,-1.50
2023-12-02T09:11:35.803Z,-1.50
2023-12-02T09:14:02.623Z,-1.40
2023-12-02T09:16:30.623Z,-1.50
2023-12-02T09:18:57.910Z,-1.40
2023-12-02T09:21:44.767Z,-1.40
2023-12-02T09:24:34.895Z,-1.40
2023-12-02T09:27:06.534Z,-1.30
2023-12-02T09:29:36.905Z,-1.30
2023-12-02T09:32:24.406Z,-1.20
2023-12-02T09:34:59.736Z,-1.20
2023-12-02T09:37:55.100Z,-1.10
2023-12-02T09:40:21.923Z,-1.10
2023-12-02T09:43:12.563Z,-1.20
2023-12-02T09:45:59.919Z,-1.10
2023-12-02T09:48:31.207Z,-1.00
2023-12-02T09:51:10.084Z,-1.00
2023-12-02T09:53:53.360Z,-1.00
2023-12-02T09:56:22.916Z,-0.80
2023-12-02T09:58:56.078Z,-0.80
2023-12-02T10:01:35.415Z,-0.80
2023-12-02T10:04:13.236Z,-0.80
2023-12-02T10:06:58.778Z,-0.70
2023-12-02T10:09:37.311Z,-0.60
2023-12-02T10:12:34.054Z,-0.60
2023-12-02T10:15:02.746Z,-0.50
2023-12-02T10:17:34.463Z,-0.30
2023-12-02T10:20:10.645Z,-0.40
2023-12-02T10:22:45.089Z,-0.20
2023-12-02T10:25:34.803Z,-0.20
2023-12-02T10:28:30.455Z,-0.10
2023-12-02T10:31:00.495Z,-0.10
2023-12-02T10:33:28.581Z,-0.10
2023-12-02T10:35:58.915Z,-0.20
2023-12-02T10:38:46.986Z,-0.10
2023-12-02T10:41:26.007Z,-0.10
2023-12-02T10:43:57.386Z,-0.10
2023-12-02T10:46:25.220Z,-0.10
2023-12-02T10:48:54.892Z,0.00
2023-12-02T10:51:23.761Z,-0.10
2023-12-02T10:53:52.145Z,0.00
2023-12-02T10:56:24.494Z,-0.10
2023-12-02T10:58:53.151Z,0.00
2023-12-02T11:01:30.289Z,0.00
2023-12-02T11:04:06.140Z,0.00
2023-12-02T11:06:37.739Z,0.00
2023-12-02T11:09:06.424Z,0.10
2023-12-02T11:11:42.436Z,0.10
2023-12-02T11:14:15.337Z,0.20
2023-12-02T11:17:10.477Z,0.20
2023-12-02T11:19:59.504Z,0.30
2023-12-02T11:22:50.927Z,0.30
2023-12-02T11:25:29.095Z,0.20
2023-12-02T11:28:19.103Z,0.30
2023-12-02T11:31:07.546Z,0.40
2023-12-02T11:33:37.949Z,0.50
2023-12-02T11:36:10.916Z,0.60
2023-12-02T11:38:47.070Z,0.60
2023-12-02T11:41:19.801Z,0.60
2023-12-02T11:44:07.356Z,0.60
2023-12-02T11:46:56.020Z,0.60
2023-12-02T11:49:43.997Z,0.60
2023-12-02T11:52:18.433Z,0.80
2023-12-02T11:54:59.913Z,0.80
2023-12-02T11:57:45.210Z,1.00
2023-12-02T12:00:24.957Z,1.10
2023-12-02T12:03:27.073Z,1.30
2023-12-02T12:06:06.301Z,1.30
2023-12-02T12:08:46.286Z,1.30
2023-12-02T12:11:17.988Z,1.30
2023-12-02T12:13:48.085Z,1.20
2023-12-02T12:16:15.064Z,1.00
2023-12-02T12:18:43.715Z,1.10
2023-12-02T12:21:11.686Z,1.20
2023-12-02T12:23:38.484Z,1.60
2023-12-02T12:26:06.898Z,1.80
2023-12-02T12:28:33.983Z,2.10
2023-12-02T12:31:00.734Z,2.20
2023-12-02T12:33:30.030Z,2.30
2023-12-02T12:35:57.099Z,2.30
2023-12-02T12:38:23.827Z,2.30
2023-12-02T12:40:51.485Z,2.40
2023-12-02T12:43:18.996Z,2.20
2023-12-02T12:45:51.342Z,2.00
2023-12-02T12:48:27.405Z,2.00
2023-12-02T12:51:00.246Z,2.00
2023-12-02T12:53:31.232Z,2.00
2023-12-02T12:56:12.190Z,2.10
2023-12-02T12:59:00.541Z,2.00
2023-12-02T13:01:33.731Z,1.90
2023-12-02T13:04:11.850Z,1.90
2023-12-02T13:06:42.253Z,1.90
2023-12-02T13:09:10.703Z,1.90
2023-12-02T13:12:05.477Z,1.90
2023-12-02T13:14:49.212Z,2.00
2023-12-02T13:17:16.888Z,2.10
2023-12-02T13:19:45.741Z,2.00
2023-12-02T13:22:14.583Z,1.90
2023-12-02T13:24:51.091Z,1.80
2023-12-02T13:27:37.305Z,1.80
2023-12-02T13:30:07.626Z,1.90
2023-12-02T13:32:45.711Z,1.90
2023-12-02T13:35:13.604Z,1.90
2023-12-02T13:38:18.119Z,1.80
2023-12-02T13:40:57.759Z,1.80
2023-12-02T13:43:33.016Z,2.00
2023-12-02T13:46:02.852Z,2.10
2023-12-02T13:48:35.732Z,2.00
2023-12-02T13:51:33.815Z,2.00
2023-12-02T13:54:11.372Z,2.00
2023-12-02T13:57:01.181Z,2.00
2023-12-02T13:59:40.375Z,2.10
2023-12-02T14:02:38.736Z,2.00
2023-12-02T14:05:19.486Z,2.10
2023-12-02T14:07:53.372Z,2.20
2023-12-02T14:10:22.332Z,2.20
2023-12-02T14:13:07.777Z,2.30
2023-12-02T14:16:07.153Z,2.70
2023-12-02T14:19:16.139Z,2.70
2023-12-02T14:22:00.873Z,2.80
2023-12-02T14:24:50.994Z,2.90
2023-12-02T14:27:28.658Z,2.80
2023-12-02T14:30:26.064Z,2.70
2023-12-02T14:33:10.619Z,2.50
2023-12-02T14:35:55.288Z,2.60
2023-12-02T14:38:40.649Z,2.70
2023-12-02T14:41:23.352Z,2.80
2023-12-02T14:44:07.892Z,2.70
2023-12-02T14:46:34.597Z,2.60
2023-12-02T14:49:01.639Z,2.60
2023-12-02T14:51:35.059Z,2.60
2023-12-02T14:54:04.564Z,2.50
2023-12-02T14:56:31.327Z,2.50
2023-12-02T14:59:00.956Z,2.50
2023-12-02T15:01:33.264Z,2.50
2023-12-02T15:04:01.739Z,2.60
2023-12-02T15:06:30.348Z,2.50
2023-12-02T15:09:01.724Z,2.50
2023-12-02T15:11:34.818Z,2.40
2023-12-02T15:14:03.198Z,2.40
2023-12-02T15:16:33.937Z,2.30
2023-12-02T15:19:11.724Z,2.30
2023-12-02T15:22:06.623Z,2.30
2023-12-02T15:24:33.493Z,2.20
2023-12-02T15:27:00.295Z,2.20
2023-12-02T15:29:27.026Z,2.20
2023-12-02T15:31:53.728Z,2.20
2023-12-02T15:34:20.487Z,2.20
2023-12-02T15:36:47.622Z,2.20
2023-12-02T15:39:14.444Z,2.20
2023-12-02T15:41:44.265Z,2.10
2023-12-02T15:44:12.561Z,2.10
2023-12-02T15:46:40.488Z,2.10
2023-12-02T15:49:10.696Z,2.10
2023-12-02T15:51:38.030Z,2.10
2023-12-02T15:54:05.573Z,2.00
2023-12-02T15:56:33.447Z,2.00
2023-12-02T15:59:01.255Z,2.00
2023-12-02T16:01:28.201Z,2.00
2023-12-02T16:03:56.572Z,1.90
2023-12-02T16:06:26.919Z,1.90
2023-12-02T16:08:54.446Z,2.00
2023-12-02T16:11:21.367Z,2.00
2023-12-02T16:13:48.253Z,2.00
2023-12-02T16:16:18.365Z,2.00
2023-12-02T16:18:47.227Z,2.00
2023-12-02T16:21:18.414Z,2.00
2023-12-02T16:23:46.046Z,2.00
2023-12-02T16:26:16.876Z,2.00
2023-12-02T16:28:45.556Z,2.00
2023-12-02T16:31:13.132Z,2.00
2023-12-02T16:33:41.938Z,1.90
2023-12-02T16:36:09.174Z,1.90
2023-12-02T16:38:39.568Z,1.90
2023-12-02T16:41:06.731Z,1.90
2023-12-02T16:43:33.411Z,2.00
2023-12-02T16:46:04.825Z,1.90
2023-12-02T16:48:34.077Z,1.90
2023-12-02T16:51:01.777Z,1.90
2023-12-02T16:53:28.505Z,2.00
2023-12-02T16:56:05.602Z,1.90
2023-12-02T16:58:42.539Z,1.90
2023-12-02T17:01:26.319Z,1.80
2023-12-02T17:03:53.699Z,1.80
2023-12-02T17:06:20.577Z,1.70
2023-12-02T17:08:49.441Z,1.80
2023-12-02T17:11:21.183Z,1.80
2023-12-02T17:13:52.320Z,1.70
2023-12-02T17:16:56.630Z,1.70
2023-12-02T17:19:26.877Z,1.80
2023-12-02T17:21:55.838Z,1.80
2023-12-02T17:24:41.863Z,1.70
2023-12-02T17:27:14.519Z,1.80
2023-12-02T17:29:41.897Z,1.80
2023-12-02T17:32:09.508Z,1.70
2023-12-02T17:34:37.836Z,1.80
2023-12-02T17:37:04.993Z,1.70
2023-12-02T17:39:31.813Z,1.70
2023-12-02T17:41:58.900Z,1.70
2023-12-02T17:44:26.010Z,1.80
2023-12-02T17:46:54.786Z,1.80
2023-12-02T17:49:22.155Z,1.80
2023-12-02T17:51:51.734Z,1.70
2023-12-02T17:54:21.474Z,1.80
2023-12-02T17:56:49.238Z,1.80
2023-12-02T17:59:22.680Z,1.70
2023-12-02T18:01:52.675Z,1.80
2023-12-02T18:04:19.816Z,1.80
2023-12-02T18:06:46.597Z,1.80
2023-12-02T18:09:13.728Z,1.90
2023-12-02T18:11:40.577Z,1.80
2023-12-02T18:14:07.970Z,1.90
2023-12-02T18:16:34.654Z,1.90
2023-12-02T18:19:01.534Z,1.90
2023-12-02T18:21:32.263Z,1.90
2023-12-02T18:23:59.135Z,1.90
2023-12-02T18:26:26.054Z,1.80
2023-12-02T18:28:52.788Z,1.90
2023-12-02T18:31:19.498Z,1.90
2023-12-02T18:33:46.418Z,1.90
2023-12-02T18:36:13.942Z,1.90
2023-12-02T18:38:40.793Z,1.90
2023-12-02T18:41:09.173Z,1.90
2023-12-02T18:43:36.633Z,1.90
2023-12-02T18:46:03.529Z,1.90
2023-12-02T18:48:30.281Z,1.90
2023-12-02T18:50:56.985Z,1.90
2023-12-02T18:53:23.889Z,1.90
2023-12-02T18:55:59.229Z,1.90
2023-12-02T18:58:29.015Z,1.90
2023-12-02T19:00:55.746Z,1.80
2023-12-02T19:03:22.489Z,1.80
2023-12-02T19:05:49.319Z,1.70
2023-12-02T19:08:16.396Z,1.80
2023-12-02T19:10:43.110Z,1.80
2023-12-02T19:13:09.807Z,1.70
2023-12-02T19:15:36.670Z,1.80
2023-12-02T19:18:03.541Z,1.80
2023-12-02T19:20:30.365Z,1.80
2023-12-02T19:22:57.416Z,1.80
2023-12-02T19:25:24.270Z,1.80
2023-12-02T19:27:51.109Z,1.80
2023-12-02T19:30:18.008Z,1.80
2023-12-02T19:32:44.825Z,1.70
2023-12-02T19:35:12.957Z,1.80
2023-12-02T19:37:39.878Z,1.80
2023-12-02T19:40:09.479Z,1.70
2023-12-02T19:42:36.314Z,1.70
2023-12-02T19:45:03.133Z,1.70
2023-12-02T19:47:30.068Z,1.70
2023-12-02T19:49:56.839Z,1.70
2023-12-02T19:52:23.577Z,1.60
2023-12-02T19:54:52.107Z,1.60
2023-12-02T19:57:19.580Z,1.60
2023-12-02T19:59:47.274Z,1.50
2023-12-02T20:02:14.128Z,1.60
2023-12-02T20:04:41.252Z,1.60
2023-12-02T20:07:08.278Z,1.60
2023-12-02T20:09:35.104Z,1.50
2023-12-02T20:12:01.920Z,1.60
2023-12-02T20:14:28.741Z,1.60
2023-12-02T20:16:55.666Z,1.60
2023-12-02T20:19:22.458Z,1.60
2023-12-02T20:21:49.306Z,1.60
2023-12-02T20:24:16.117Z,1.60
2023-12-02T20:26:43.060Z,1.60
2023-12-02T20:29:09.792Z,1.60
2023-12-02T20:31:36.479Z,1.60
2023-12-02T20:34:03.346Z,1.60
2023-12-02T20:36:30.119Z,1.70
2023-12-02T20:38:56.998Z,1.60
2023-12-02T20:41:23.899Z,1.70
2023-12-02T20:43:50.613Z,1.70
2023-12-02T20:46:17.347Z,1.70
2023-12-02T20:48:45.731Z,1.70
2023-12-02T20:51:12.688Z,1.70
2023-12-02T20:53:39.527Z,1.70
2023-12-02T20:56:07.208Z,1.70
2023-12-02T20:58:33.998Z,1.70
2023-12-02T21:01:00.929Z,1.60
2023-12-02T21:03:27.775Z,1.70
2023-12-02T21:05:54.532Z,1.70
2023-12-02T21:08:21.890Z,1.70
2023-12-02T21:10:48.708Z,1.70
2023-12-02T21:13:15.438Z,1.60
2023-12-02T21:15:43.878Z,1.70
2023-12-02T21:18:12.691Z,1.70
2023-12-02T21:20:39.742Z,1.70
2023-12-02T21:23:07.290Z,1.70
2023-12-02T21:25:35.810Z,1.70
2023-12-02T21:28:03.755Z,1.70
2023-12-02T21:30:39.206Z,1.70
2023-12-02T21:33:11.505Z,1.70
2023-12-02T21:35:39.790Z,1.80
2023-12-02T21:38:26.047Z,1.80
2023-12-02T21:40:52.723Z,1.80
2023-12-02T21:43:19.500Z,1.80
2023-12-02T21:45:48.017Z,1.80
2023-12-02T21:48:28.505Z,1.70
2023-12-02T21:50:55.313Z,1.70
2023-12-02T21:53:26.704Z,1.60
2023-12-02T21:55:57.258Z,1.60
2023-12-02T21:58:28.000Z,1.70
2023-12-02T22:01:05.808Z,1.60
2023-12-02T22:03:37.733Z,1.70
2023-12-02T22:06:41.539Z,1.70
2023-12-02T22:09:08.441Z,1.70
2023-12-02T22:11:42.405Z,1.60
2023-12-02T22:14:26.231Z,1.70
2023-12-02T22:17:00.809Z,1.60
2023-12-02T22:19:27.623Z,1.70
2023-12-02T22:21:55.843Z,1.70
2023-12-02T22:24:24.007Z,1.60
2023-12-02T22:26:51.457Z,1.70
2023-12-02T22:29:30.111Z,1.70
2023-12-02T22:31:59.059Z,1.70
2023-12-02T22:34:26.076Z,1.70
2023-12-02T22:36:52.943Z,1.60
2023-12-02T22:39:27.747Z,1.60
2023-12-02T22:41:57.278Z,1.70
2023-12-02T22:44:24.989Z,1.70
2023-12-02T22:46:59.087Z,1.60
2023-12-02T22:49:27.870Z,1.70
2023-12-02T22:51:58.279Z,1.60
2023-12-02T22:54:36.451Z,1.60
